Time;durP1;ratioP1;P1;durP2;ratioP2;P2;SDS_P1;SDS_P2;PMS_P1;PMS_P2;Temp;Humidity;BMP_temperature;BMP_pressure;BME280_temperature;BME280_humidity;BME280_pressure;Samples;Min_cycle;Max_cycle;Signal;HPM_P1;HPM_P2
2021/12/14 00:05:49;;;;;;;1.90;1.20;;;12.80;60.50;;;;;;20754992;28;20037;-75
2021/12/14 00:15:49;;;;;;;1.45;1.25;;;12.80;60.60;;;;;;20839083;28;20021;-76
2021/12/14 00:25:52;;;;;;;3.00;1.45;;;12.80;60.60;;;;;;20821817;28;20042;-76
2021/12/14 00:35:53;;;;;;;2.28;1.45;;;12.80;60.70;;;;;;20822097;28;20037;-76
2021/12/14 00:45:53;;;;;;;2.75;1.83;;;12.70;60.70;;;;;;20821528;28;20041;-76
2021/12/14 00:55:54;;;;;;;2.35;1.40;;;12.80;60.70;;;;;;20804787;28;20630;-76
2021/12/14 01:05:56;;;;;;;1.40;0.98;;;12.80;60.80;;;;;;20804679;28;20041;-77
2021/12/14 01:16:12;;;;;;;1.63;1.10;;;12.70;60.80;;;;;;20833598;28;20395;-76
2021/12/14 01:26:17;;;;;;;1.43;1.07;;;12.70;60.80;;;;;;20835010;28;20128;-75
2021/12/14 01:36:42;;;;;;;3.28;1.70;;;12.70;60.80;;;;;;20818327;28;20037;-76
2021/12/14 01:46:45;;;;;;;1.83;1.35;;;12.70;61.50;;;;;;20831316;28;20033;-78
2021/12/14 01:57:10;;;;;;;1.85;1.25;;;12.70;60.90;;;;;;20833584;28;20053;-76
2021/12/14 02:07:11;;;;;;;2.58;1.50;;;12.80;61.00;;;;;;20833387;28;20091;-76
2021/12/14 02:17:18;;;;;;;2.25;1.00;;;12.70;61.00;;;;;;20815419;28;20037;-76
2021/12/14 02:27:19;;;;;;;1.88;1.20;;;12.70;61.00;;;;;;20818852;28;20033;-76
2021/12/14 02:37:22;;;;;;;1.65;1.20;;;12.70;61.10;;;;;;20829543;28;20044;-76
2021/12/14 02:47:23;;;;;;;2.03;1.30;;;12.70;61.10;;;;;;20812555;28;20137;-77
2021/12/14 02:57:25;;;;;;;2.53;1.23;;;12.60;61.00;;;;;;20829731;28;20025;-76
2021/12/14 03:07:29;;;;;;;1.50;0.88;;;12.70;61.10;;;;;;20827620;28;20042;-75
2021/12/14 03:17:29;;;;;;;1.63;0.98;;;12.60;61.10;;;;;;20843117;28;20543;-75
2021/12/14 03:27:30;;;;;;;1.88;1.05;;;12.60;61.10;;;;;;20826411;28;20057;-76
2021/12/14 03:37:30;;;;;;;1.65;1.15;;;12.70;61.80;;;;;;20824480;28;20120;-76
2021/12/14 03:47:35;;;;;;;2.15;1.17;;;12.60;61.10;;;;;;20824415;28;20042;-75
2021/12/14 03:57:37;;;;;;;2.75;1.10;;;12.60;61.10;;;;;;20823517;28;20123;-75
2021/12/14 04:07:41;;;;;;;1.67;0.98;;;12.60;61.20;;;;;;20823274;28;20094;-75
2021/12/14 04:17:50;;;;;;;2.05;1.15;;;12.60;61.20;;;;;;20807797;28;20619;-75
2021/12/14 04:27:52;;;;;;;2.30;1.42;;;12.60;61.20;;;;;;20822381;28;20080;-76
2021/12/14 04:37:56;;;;;;;1.75;1.10;;;12.60;61.30;;;;;;20815754;28;20066;-75
2021/12/14 04:58:17;;;;;;;1.80;1.20;;;12.60;61.30;;;;;;20755085;28;20042;-81
2021/12/14 05:18:18;;;;;;;1.30;0.95;;;12.80;61.00;;;;;;20757170;28;20053;-76
2021/12/14 05:28:20;;;;;;;4.70;0.95;;;13.50;59.50;;;;;;20737557;28;20042;-76
2021/12/14 05:38:28;;;;;;;1.73;1.02;;;14.20;57.60;;;;;;20773624;28;20037;-78
2021/12/14 05:48:34;;;;;;;1.13;0.70;;;15.00;55.70;;;;;;20848783;28;20392;-81
2021/12/14 05:58:35;;;;;;;1.30;0.93;;;15.60;54.10;;;;;;20829400;28;20056;-76
2021/12/14 06:08:36;;;;;;;1.30;0.80;;;15.80;53.00;;;;;;20802608;28;20456;-77
2021/12/14 06:18:49;;;;;;;2.67;1.30;;;15.90;52.60;;;;;;20823569;28;20373;-76
2021/12/14 06:29:10;;;;;;;1.67;1.02;;;15.70;52.60;;;;;;20771045;28;20052;-76
2021/12/14 06:39:11;;;;;;;1.33;1.05;;;15.20;53.60;;;;;;20763917;28;20126;-78
2021/12/14 06:49:13;;;;;;;1.30;0.90;;;14.50;54.90;;;;;;20816769;28;20030;-77
2021/12/14 06:59:16;;;;;;;1.63;1.05;;;14.00;56.10;;;;;;20815712;28;20051;-77
2021/12/14 07:09:34;;;;;;;1.02;0.88;;;13.60;57.20;;;;;;20815463;28;20095;-76
2021/12/14 07:19:54;;;;;;;1.52;0.93;;;13.30;58.10;;;;;;20776046;28;20038;-77
2021/12/14 07:30:35;;;;;;;2.53;1.10;;;13.10;58.90;;;;;;20826727;28;20744;-78
2021/12/14 07:40:40;;;;;;;1.95;0.98;;;13.00;59.50;;;;;;20795656;28;20077;-76
2021/12/14 07:50:45;;;;;;;1.38;1.10;;;12.90;59.80;;;;;;20761726;28;20136;-77
2021/12/14 08:00:45;;;;;;;2.00;1.13;;;12.80;60.00;;;;;;20731770;28;20112;-77
2021/12/14 08:11:08;;;;;;;2.08;0.98;;;12.80;60.10;;;;;;20731058;28;20034;-77
2021/12/14 08:21:22;;;;;;;1.30;0.80;;;12.80;60.20;;;;;;20814918;28;20045;-77
2021/12/14 08:31:25;;;;;;;1.83;1.05;;;12.80;60.20;;;;;;20809668;28;20033;-79
2021/12/14 08:41:27;;;;;;;2.63;1.15;;;12.90;60.30;;;;;;20743070;28;20621;-79
2021/12/14 08:51:34;;;;;;;1.30;0.70;;;12.90;60.30;;;;;;20746976;28;20026;-77
2021/12/14 09:01:35;;;;;;;1.40;0.77;;;12.90;60.30;;;;;;20738526;28;20033;-78
2021/12/14 09:11:37;;;;;;;1.48;0.80;;;12.90;60.40;;;;;;20770195;28;20033;-76
2021/12/14 09:21:40;;;;;;;1.33;0.93;;;12.90;60.40;;;;;;20772768;28;20476;-78
2021/12/14 09:31:42;;;;;;;1.80;0.95;;;12.80;60.50;;;;;;20775142;28;20129;-80
2021/12/14 09:41:44;;;;;;;5.95;1.20;;;12.80;60.50;;;;;;20784207;28;20030;-79
2021/12/14 09:51:56;;;;;;;1.33;1.02;;;12.80;60.60;;;;;;20758784;28;20067;-81
2021/12/14 10:02:00;;;;;;;2.80;1.60;;;12.80;60.60;;;;;;20809087;28;20053;-82
2021/12/14 10:22:39;;;;;;;1.67;1.10;;;12.80;60.80;;;;;;20754238;28;20053;-78
2021/12/14 10:32:40;;;;;;;2.13;1.25;;;12.80;60.90;;;;;;20740492;28;20091;-79
2021/12/14 10:43:06;;;;;;;3.35;1.05;;;12.80;60.90;;;;;;20820419;28;20025;-80
2021/12/14 10:53:08;;;;;;;3.00;1.50;;;12.80;61.00;;;;;;20792987;28;20480;-79
2021/12/14 11:03:16;;;;;;;2.67;1.98;;;12.70;61.00;;;;;;20780731;28;20472;-78
2021/12/14 11:13:16;;;;;;;1.75;1.23;;;12.90;61.20;;;;;;20765553;28;20037;-78
2021/12/14 11:23:26;;;;;;;4.53;1.90;;;13.20;60.30;;;;;;21142279;22;20526;-82
2021/12/14 11:33:51;;;;;;;3.15;1.85;;;13.90;58.60;;;;;;20815030;28;20033;-81
2021/12/14 11:43:56;;;;;;;2.85;1.70;;;14.50;57.10;;;;;;20756255;28;20033;-77
2021/12/14 11:53:57;;;;;;;3.75;2.05;;;15.10;55.50;;;;;;20769865;28;20034;-77
2021/12/14 12:04:09;;;;;;;2.47;1.50;;;15.50;54.40;;;;;;20795007;28;20495;-76
2021/12/14 12:14:25;;;;;;;4.47;2.40;;;15.70;53.80;;;;;;20829414;28;20041;-74
2021/12/14 12:24:31;;;;;;;3.43;2.03;;;15.60;53.60;;;;;;20737683;28;20034;-76
2021/12/14 12:34:35;;;;;;;3.17;1.70;;;15.30;54.40;;;;;;20722464;28;20053;-77
2021/12/14 12:44:40;;;;;;;5.55;2.92;;;14.60;55.60;;;;;;20736911;28;20124;-77
2021/12/14 12:54:58;;;;;;;5.38;2.83;;;14.10;56.90;;;;;;20803162;28;20049;-74
2021/12/14 13:05:19;;;;;;;2.78;2.00;;;13.70;58.10;;;;;;20820586;28;20035;-73
2021/12/14 13:15:27;;;;;;;2.78;1.75;;;13.40;59.00;;;;;;20760050;28;20119;-75
2021/12/14 13:25:39;;;;;;;3.08;2.08;;;13.30;59.70;;;;;;20735592;28;20033;-77
2021/12/14 13:35:40;;;;;;;4.35;2.40;;;13.10;60.30;;;;;;20771786;28;20048;-80
2021/12/14 13:46:03;;;;;;;4.43;2.33;;;13.00;60.60;;;;;;20835477;28;20113;-81
2021/12/14 13:56:07;;;;;;;2.65;1.83;;;13.00;60.80;;;;;;20732118;28;20065;-77
2021/12/14 14:06:12;;;;;;;3.45;1.98;;;13.00;61.00;;;;;;20738989;28;20399;-82
2021/12/14 14:16:12;;;;;;;3.70;2.35;;;13.00;61.00;;;;;;20796104;28;20033;-78
2021/12/14 14:26:18;;;;;;;2.97;2.33;;;13.10;61.00;;;;;;20831167;28;20391;-76
2021/12/14 14:36:24;;;;;;;3.33;2.10;;;13.10;61.10;;;;;;20814977;28;20373;-77
2021/12/14 14:46:40;;;;;;;3.90;2.20;;;13.00;61.10;;;;;;20828848;28;20033;-76
2021/12/14 14:56:41;;;;;;;3.33;1.95;;;13.10;61.40;;;;;;20828537;28;20115;-75
2021/12/14 15:06:42;;;;;;;4.40;2.63;;;13.00;61.90;;;;;;20828050;28;20061;-75
2021/12/14 15:16:50;;;;;;;3.42;2.25;;;13.00;61.70;;;;;;20728957;28;20040;-75
2021/12/14 15:27:08;;;;;;;3.60;2.22;;;13.00;61.90;;;;;;20815128;28;20048;-75
2021/12/14 15:37:32;;;;;;;4.03;2.55;;;12.90;62.00;;;;;;20840115;28;20084;-75
2021/12/14 15:47:32;;;;;;;2.83;2.03;;;13.10;62.00;;;;;;20822378;28;20037;-75
2021/12/14 15:57:33;;;;;;;3.88;2.05;;;13.60;60.70;;;;;;20803936;28;20109;-75
2021/12/14 16:07:38;;;;;;;3.38;2.30;;;14.20;59.00;;;;;;20798880;28;20126;-75
2021/12/14 16:17:47;;;;;;;2.50;1.58;;;14.80;57.40;;;;;;20795764;28;20044;-75
2021/12/14 16:27:51;;;;;;;2.28;1.40;;;15.30;56.00;;;;;;20770219;28;20034;-76
2021/12/14 16:37:52;;;;;;;3.05;1.75;;;15.50;55.40;;;;;;20780939;28;20038;-74
2021/12/14 16:47:53;;;;;;;2.87;1.93;;;15.40;55.30;;;;;;20776870;28;20446;-76
2021/12/14 16:57:56;;;;;;;4.45;2.42;;;14.80;56.20;;;;;;20817628;28;20315;-76
2021/12/14 17:07:58;;;;;;;4.90;2.38;;;14.30;57.40;;;;;;20751890;28;20099;-76
2021/12/14 17:17:59;;;;;;;4.68;2.97;;;14.00;58.50;;;;;;20779891;28;20191;-76
2021/12/14 17:28:00;;;;;;;4.70;3.35;;;13.60;59.50;;;;;;20770564;28;20502;-77
2021/12/14 17:38:02;;;;;;;5.82;3.83;;;13.40;60.50;;;;;;20807181;28;20037;-77
2021/12/14 17:48:03;;;;;;;5.13;3.03;;;13.10;61.10;;;;;;20792209;28;20156;-76
2021/12/14 17:58:06;;;;;;;4.22;2.67;;;13.00;61.70;;;;;;20820226;28;20044;-76
2021/12/14 18:08:15;;;;;;;5.60;2.42;;;12.90;62.00;;;;;;20797927;28;20033;-78
2021/12/14 18:28:37;;;;;;;5.18;2.97;;;12.90;62.50;;;;;;20783561;28;20550;-78
2021/12/14 18:39:17;;;;;;;5.00;2.78;;;12.90;62.60;;;;;;20800650;28;20033;-78
2021/12/14 18:59:39;;;;;;;4.65;2.50;;;12.90;62.50;;;;;;20780311;28;20504;-80
2021/12/14 19:09:46;;;;;;;3.72;2.47;;;13.00;62.50;;;;;;20736184;28;20392;-79
2021/12/14 19:19:47;;;;;;;4.57;2.83;;;13.00;62.60;;;;;;20734432;28;20052;-78
2021/12/14 19:29:56;;;;;;;8.15;3.67;;;13.00;62.60;;;;;;20750310;28;20045;-80
2021/12/14 19:39:58;;;;;;;5.28;3.67;;;13.00;62.60;;;;;;20784401;28;20112;-78
2021/12/14 19:50:20;;;;;;;8.70;4.53;;;13.00;62.70;;;;;;20798565;28;20037;-78
2021/12/14 20:00:44;;;;;;;6.32;3.67;;;13.00;62.70;;;;;;20830564;28;20045;-78
2021/12/14 20:10:54;;;;;;;7.07;3.53;;;13.00;62.70;;;;;;20809972;28;20034;-77
2021/12/14 20:32:23;;;;;;;7.50;3.88;;;13.00;62.80;;;;;;20843723;28;20038;-79
2021/12/14 20:42:32;;;;;;;7.10;3.87;;;12.90;62.80;;;;;;20810512;28;20056;-80
2021/12/14 20:52:34;;;;;;;5.43;3.50;;;12.90;62.80;;;;;;20791428;28;20295;-79
2021/12/14 21:02:34;;;;;;;6.68;4.18;;;12.90;62.90;;;;;;20764701;28;20510;-78
2021/12/14 21:12:35;;;;;;;6.00;3.83;;;12.90;62.90;;;;;;20794818;28;20063;-79
2021/12/14 21:22:40;;;;;;;7.70;4.03;;;13.00;63.00;;;;;;20805385;28;20041;-79
2021/12/14 21:32:43;;;;;;;7.13;4.25;;;12.90;63.00;;;;;;20791685;28;20045;-78
2021/12/14 21:42:45;;;;;;;8.40;4.47;;;12.90;63.00;;;;;;20808833;28;20036;-78
2021/12/14 21:52:47;;;;;;;8.27;4.90;;;12.90;63.20;;;;;;20823385;28;20049;-78
2021/12/14 22:02:48;;;;;;;10.43;5.38;;;12.90;63.20;;;;;;20791679;28;20025;-78
2021/12/14 22:12:48;;;;;;;7.25;4.40;;;12.90;63.30;;;;;;20805869;28;20395;-78
2021/12/14 22:22:49;;;;;;;8.20;4.75;;;12.90;63.40;;;;;;20823243;28;20048;-79
2021/12/14 22:32:50;;;;;;;7.90;4.65;;;12.80;63.40;;;;;;20820158;28;20106;-78
2021/12/14 22:42:59;;;;;;;8.38;5.13;;;12.80;63.40;;;;;;20835707;28;20040;-78
2021/12/14 22:52:59;;;;;;;8.27;4.35;;;12.90;63.50;;;;;;20850916;28;20689;-79
2021/12/14 23:03:00;;;;;;;6.88;4.38;;;12.80;63.50;;;;;;20835888;28;20087;-78
2021/12/14 23:13:06;;;;;;;7.00;4.40;;;12.90;63.60;;;;;;20835057;28;20049;-78
2021/12/14 23:23:08;;;;;;;9.10;5.05;;;12.80;63.60;;;;;;20833803;28;20037;-78
2021/12/14 23:33:08;;;;;;;5.45;3.25;;;12.80;63.60;;;;;;20817028;28;20033;-81
2021/12/14 23:43:09;;;;;;;8.17;4.87;;;12.80;63.70;;;;;;20831970;28;20029;-79
2021/12/14 23:53:10;;;;;;;7.20;4.05;;;12.80;63.80;;;;;;20831141;28;20338;-78
